Time;durP1;ratioP1;P1;durP2;ratioP2;P2;SDS_P1;SDS_P2;PMS_P1;PMS_P2;Temp;Humidity;BMP_temperature;BMP_pressure;BME280_temperature;BME280_humidity;BME280_pressure;Samples;Min_cycle;Max_cycle;Signal;HPM_P1;HPM_P2
2021/04/02 00:01:47;;;;;;;40.70;27.35;;;;;;;;;;5081902;28;20228;-64
2021/04/02 00:04:12;;;;;;;37.03;26.63;;;;;;;;;;5074891;28;20207;-64
2021/04/02 00:06:38;;;;;;;44.10;27.30;;;;;;;;;;5079223;28;20222;-65
2021/04/02 00:09:05;;;;;;;45.90;28.17;;;;;;;;;;5079107;28;20575;-64
2021/04/02 00:11:30;;;;;;;47.30;28.27;;;;;;;;;;5076054;28;20205;-66
2021/04/02 00:13:56;;;;;;;42.28;27.85;;;;;;;;;;5083795;28;20281;-65
2021/04/02 00:16:23;;;;;;;45.08;29.25;;;;;;;;;;5097520;28;20196;-63
2021/04/02 00:18:49;;;;;;;47.70;28.92;;;;;;;;;;5100919;28;20190;-64
2021/04/02 00:21:16;;;;;;;46.85;29.15;;;;;;;;;;5077315;28;20194;-65
2021/04/02 00:23:43;;;;;;;49.92;29.83;;;;;;;;;;5085384;28;20193;-65
2021/04/02 00:26:11;;;;;;;45.50;29.45;;;;;;;;;;5085878;28;20205;-64
2021/04/02 00:28:37;;;;;;;46.45;27.80;;;;;;;;;;5077478;28;20240;-64
2021/04/02 00:31:03;;;;;;;45.30;29.15;;;;;;;;;;5081656;28;20566;-64
2021/04/02 00:33:30;;;;;;;48.20;29.40;;;;;;;;;;5079433;28;20178;-64
2021/04/02 00:35:56;;;;;;;38.77;26.77;;;;;;;;;;5074073;28;20238;-65
2021/04/02 00:38:22;;;;;;;44.00;29.40;;;;;;;;;;5078546;28;20179;-65
2021/04/02 00:40:48;;;;;;;43.63;28.60;;;;;;;;;;5077117;28;20286;-64
2021/04/02 00:43:15;;;;;;;45.50;28.98;;;;;;;;;;5083708;28;20681;-65
2021/04/02 00:45:41;;;;;;;38.40;27.23;;;;;;;;;;5076377;28;20550;-65
2021/04/02 00:48:08;;;;;;;48.05;28.35;;;;;;;;;;5076413;28;20224;-64
2021/04/02 00:50:39;;;;;;;42.60;29.63;;;;;;;;;;5084456;28;20700;-64
2021/04/02 00:53:06;;;;;;;43.22;29.90;;;;;;;;;;5074128;28;20183;-64
2021/04/02 00:55:32;;;;;;;46.47;29.67;;;;;;;;;;5073455;28;20746;-65
2021/04/02 00:57:58;;;;;;;43.65;29.25;;;;;;;;;;5071387;28;20179;-65
2021/04/02 01:00:25;;;;;;;43.75;30.90;;;;;;;;;;5085452;28;20254;-66
2021/04/02 01:02:51;;;;;;;46.65;29.63;;;;;;;;;;5074853;28;20227;-65
2021/04/02 01:05:19;;;;;;;43.45;30.40;;;;;;;;;;5077288;28;20214;-66
2021/04/02 01:07:56;;;;;;;41.30;29.85;;;;;;;;;;5074517;28;20308;-64
2021/04/02 01:10:23;;;;;;;43.25;30.77;;;;;;;;;;5075517;28;20189;-65
2021/04/02 01:13:00;;;;;;;45.75;29.50;;;;;;;;;;5076240;28;20190;-65
2021/04/02 01:15:33;;;;;;;45.50;30.03;;;;;;;;;;5078230;28;20214;-64
2021/04/02 01:18:00;;;;;;;45.88;30.02;;;;;;;;;;5075966;28;20187;-65
2021/04/02 01:20:29;;;;;;;48.78;30.55;;;;;;;;;;5077364;28;20210;-65
2021/04/02 01:22:58;;;;;;;46.87;31.60;;;;;;;;;;5070695;28;20203;-64
2021/04/02 01:25:28;;;;;;;45.03;30.02;;;;;;;;;;5075930;28;20249;-65
2021/04/02 01:28:12;;;;;;;39.33;29.47;;;;;;;;;;5078517;28;20274;-65
2021/04/02 01:30:39;;;;;;;41.87;30.40;;;;;;;;;;5075249;28;20556;-64
2021/04/02 01:33:06;;;;;;;48.07;30.60;;;;;;;;;;5082794;28;20653;-64
2021/04/02 01:35:36;;;;;;;45.63;30.93;;;;;;;;;;5086513;28;20210;-64
2021/04/02 01:38:02;;;;;;;47.07;32.33;;;;;;;;;;5077962;28;20189;-68
2021/04/02 01:40:30;;;;;;;46.40;32.00;;;;;;;;;;5080835;28;20186;-64
2021/04/02 01:43:00;;;;;;;45.73;31.57;;;;;;;;;;5079506;28;20649;-66
2021/04/02 01:45:26;;;;;;;41.90;30.83;;;;;;;;;;5087602;28;20208;-65
2021/04/02 01:47:52;;;;;;;40.77;29.67;;;;;;;;;;5088467;28;20180;-65
2021/04/02 01:50:19;;;;;;;43.23;31.27;;;;;;;;;;5080312;28;20183;-65
2021/04/02 01:52:46;;;;;;;46.13;32.93;;;;;;;;;;5080230;28;20185;-64
2021/04/02 01:55:13;;;;;;;43.63;32.03;;;;;;;;;;5082991;28;20256;-66
2021/04/02 01:57:40;;;;;;;49.33;33.53;;;;;;;;;;5085091;28;20179;-64
2021/04/02 02:00:10;;;;;;;45.93;33.00;;;;;;;;;;5086692;28;20739;-63
2021/04/02 02:02:36;;;;;;;47.03;32.40;;;;;;;;;;5083667;28;20193;-64
2021/04/02 02:05:02;;;;;;;43.80;29.90;;;;;;;;;;5085588;28;20833;-65
2021/04/02 02:07:28;;;;;;;41.27;29.77;;;;;;;;;;5084203;28;20186;-65
2021/04/02 02:09:56;;;;;;;43.43;29.97;;;;;;;;;;5074779;28;20270;-66
2021/04/02 02:12:22;;;;;;;39.70;28.57;;;;;;;;;;5084182;28;20191;-65
2021/04/02 02:14:50;;;;;;;39.07;28.13;;;;;;;;;;5076774;28;20206;-66
2021/04/02 02:17:20;;;;;;;38.60;25.70;;;;;;;;;;5074847;28;20608;-65
2021/04/02 02:19:47;;;;;;;34.53;25.10;;;;;;;;;;5076752;28;20193;-66
2021/04/02 02:22:13;;;;;;;35.43;24.17;;;;;;;;;;5079068;28;20194;-63
2021/04/02 02:24:40;;;;;;;35.40;21.10;;;;;;;;;;5085420;28;20300;-65
2021/04/02 02:27:07;;;;;;;31.33;22.17;;;;;;;;;;5082369;28;20672;-64
2021/04/02 02:29:33;;;;;;;31.93;22.90;;;;;;;;;;5088152;28;20280;-64
2021/04/02 02:32:00;;;;;;;26.27;20.30;;;;;;;;;;5077155;28;20259;-64
2021/04/02 02:34:26;;;;;;;31.00;21.30;;;;;;;;;;5080963;28;22087;-64
2021/04/02 02:36:52;;;;;;;30.50;21.07;;;;;;;;;;5082575;28;20183;-64
2021/04/02 02:39:18;;;;;;;29.93;19.63;;;;;;;;;;5086146;28;20247;-65
2021/04/02 02:41:45;;;;;;;28.43;20.73;;;;;;;;;;5078232;28;20202;-63
2021/04/02 02:44:11;;;;;;;28.10;19.47;;;;;;;;;;5079831;28;20229;-66
2021/04/02 02:46:38;;;;;;;24.87;19.73;;;;;;;;;;5077967;28;20256;-65
2021/04/02 02:49:08;;;;;;;26.97;19.27;;;;;;;;;;5082363;28;20267;-65
2021/04/02 02:51:34;;;;;;;23.53;17.43;;;;;;;;;;5080778;28;20186;-65
2021/04/02 02:54:02;;;;;;;23.93;18.33;;;;;;;;;;5078636;28;20203;-65
2021/04/02 02:56:29;;;;;;;26.33;18.27;;;;;;;;;;5077946;28;20187;-65
2021/04/02 02:58:56;;;;;;;26.30;19.90;;;;;;;;;;5073996;28;20187;-65
2021/04/02 03:01:23;;;;;;;24.43;18.53;;;;;;;;;;5079590;28;20709;-65
2021/04/02 03:03:52;;;;;;;26.30;18.37;;;;;;;;;;5077630;28;20174;-64
2021/04/02 03:06:19;;;;;;;25.10;18.87;;;;;;;;;;5075337;28;20249;-66
2021/04/02 03:08:46;;;;;;;25.33;18.07;;;;;;;;;;5082925;28;20243;-64
2021/04/02 03:11:15;;;;;;;26.67;17.20;;;;;;;;;;5083792;28;20277;-66
2021/04/02 03:13:41;;;;;;;25.97;17.93;;;;;;;;;;5083433;28;20798;-66
2021/04/02 03:16:09;;;;;;;21.80;16.03;;;;;;;;;;5078665;28;20690;-65
2021/04/02 03:18:37;;;;;;;23.17;15.07;;;;;;;;;;5085165;28;20252;-63
2021/04/02 03:21:03;;;;;;;23.30;15.40;;;;;;;;;;5081499;28;20200;-66
2021/04/02 03:23:31;;;;;;;18.57;14.03;;;;;;;;;;5077262;28;20183;-64
2021/04/02 03:25:58;;;;;;;18.87;14.30;;;;;;;;;;5056311;28;638133;-64
2021/04/02 03:28:24;;;;;;;19.90;14.07;;;;;;;;;;5073709;28;20194;-64
2021/04/02 03:30:50;;;;;;;19.83;12.60;;;;;;;;;;5083157;28;20656;-65
2021/04/02 03:33:16;;;;;;;20.47;13.33;;;;;;;;;;5074991;28;20186;-65
2021/04/02 03:35:44;;;;;;;20.37;12.97;;;;;;;;;;5077497;28;20222;-64
2021/04/02 03:38:11;;;;;;;17.47;12.30;;;;;;;;;;5086995;28;20190;-64
2021/04/02 03:40:37;;;;;;;19.63;11.67;;;;;;;;;;5075856;28;20215;-64
2021/04/02 03:43:05;;;;;;;15.33;11.90;;;;;;;;;;5079401;28;20568;-64
2021/04/02 03:45:31;;;;;;;20.13;12.33;;;;;;;;;;5081517;28;20202;-64
2021/04/02 03:47:58;;;;;;;16.77;11.37;;;;;;;;;;5078147;28;20187;-63
2021/04/02 03:50:28;;;;;;;13.43;10.50;;;;;;;;;;5081434;28;20561;-64
2021/04/02 03:53:03;;;;;;;20.63;10.77;;;;;;;;;;5074131;28;20880;-64
2021/04/02 03:55:29;;;;;;;13.77;10.73;;;;;;;;;;5071833;28;20696;-64
2021/04/02 03:57:56;;;;;;;13.80;10.30;;;;;;;;;;5075991;28;20178;-64
2021/04/02 04:00:25;;;;;;;14.73;10.43;;;;;;;;;;5085991;28;20208;-64
2021/04/02 04:02:52;;;;;;;16.77;10.53;;;;;;;;;;5076114;28;20210;-64
2021/04/02 04:05:18;;;;;;;14.07;11.17;;;;;;;;;;5080424;28;20792;-65
2021/04/02 04:07:46;;;;;;;14.67;10.23;;;;;;;;;;5078939;28;20196;-64
2021/04/02 04:10:14;;;;;;;14.30;10.33;;;;;;;;;;5082664;28;20243;-64
2021/04/02 04:12:41;;;;;;;15.97;10.63;;;;;;;;;;5083328;28;20220;-64
2021/04/02 04:15:07;;;;;;;14.13;10.57;;;;;;;;;;5075645;28;20214;-64
2021/04/02 04:17:35;;;;;;;15.93;10.90;;;;;;;;;;5073571;28;20213;-64
2021/04/02 04:20:02;;;;;;;14.17;11.00;;;;;;;;;;5080299;28;20243;-64
2021/04/02 04:22:29;;;;;;;13.37;9.53;;;;;;;;;;5080473;28;20258;-64
2021/04/02 04:24:55;;;;;;;12.63;9.77;;;;;;;;;;5081323;28;20222;-64
2021/04/02 04:27:23;;;;;;;13.67;9.23;;;;;;;;;;5082062;28;20567;-64
2021/04/02 04:29:51;;;;;;;16.10;9.30;;;;;;;;;;5079346;28;20191;-64
2021/04/02 04:32:18;;;;;;;12.57;9.00;;;;;;;;;;5072145;28;20191;-65
2021/04/02 04:34:47;;;;;;;12.23;8.93;;;;;;;;;;5077461;28;20218;-65
2021/04/02 04:37:15;;;;;;;12.43;8.70;;;;;;;;;;5078434;28;20538;-64
2021/04/02 04:39:43;;;;;;;12.60;8.70;;;;;;;;;;5078127;28;20191;-65
2021/04/02 04:42:11;;;;;;;13.60;8.77;;;;;;;;;;5080318;28;20201;-66
2021/04/02 04:44:39;;;;;;;10.57;8.27;;;;;;;;;;5074897;28;20227;-65
2021/04/02 04:47:05;;;;;;;14.43;8.43;;;;;;;;;;5083757;28;20187;-66
2021/04/02 04:49:31;;;;;;;9.60;8.03;;;;;;;;;;5086148;28;20678;-65
2021/04/02 04:51:57;;;;;;;11.77;7.70;;;;;;;;;;5099635;28;20202;-65
2021/04/02 04:54:24;;;;;;;10.10;6.97;;;;;;;;;;5094541;28;20272;-65
2021/04/02 04:56:51;;;;;;;9.03;7.67;;;;;;;;;;5098495;28;20204;-64
2021/04/02 04:59:19;;;;;;;9.93;6.83;;;;;;;;;;5073611;28;20197;-64
2021/04/02 05:01:46;;;;;;;9.27;6.33;;;;;;;;;;5085264;28;20178;-65
2021/04/02 05:04:13;;;;;;;11.53;6.47;;;;;;;;;;5076384;28;20722;-66
2021/04/02 05:06:39;;;;;;;10.50;6.07;;;;;;;;;;5077762;28;20190;-64
2021/04/02 05:09:06;;;;;;;11.77;5.93;;;;;;;;;;5085485;28;20649;-65
2021/04/02 05:11:33;;;;;;;7.73;5.20;;;;;;;;;;5081754;28;20183;-65
2021/04/02 05:14:00;;;;;;;7.47;4.80;;;;;;;;;;5069623;28;20263;-64
2021/04/02 05:16:26;;;;;;;5.80;4.63;;;;;;;;;;5079426;28;20209;-66
2021/04/02 05:18:52;;;;;;;5.07;4.50;;;;;;;;;;5078230;28;20198;-65
2021/04/02 05:21:19;;;;;;;7.03;4.40;;;;;;;;;;5072446;28;20195;-64
2021/04/02 05:23:45;;;;;;;6.40;4.27;;;;;;;;;;5078484;28;20182;-65
2021/04/02 05:26:12;;;;;;;5.67;4.33;;;;;;;;;;5075430;28;20197;-65
2021/04/02 05:28:38;;;;;;;4.90;4.13;;;;;;;;;;5082798;28;20181;-64
2021/04/02 05:31:04;;;;;;;6.23;4.37;;;;;;;;;;5077302;28;20189;-65
2021/04/02 05:33:30;;;;;;;7.13;4.07;;;;;;;;;;5081817;28;20265;-64
2021/04/02 05:35:56;;;;;;;5.03;4.23;;;;;;;;;;5074982;28;20218;-64
2021/04/02 05:38:22;;;;;;;6.53;4.13;;;;;;;;;;5083940;28;20182;-64
2021/04/02 05:40:48;;;;;;;8.00;4.30;;;;;;;;;;5075027;28;20315;-64
2021/04/02 05:43:33;;;;;;;8.57;4.77;;;;;;;;;;5082192;28;20198;-64
2021/04/02 05:46:01;;;;;;;6.47;4.80;;;;;;;;;;5081893;28;20209;-65
2021/04/02 05:48:31;;;;;;;6.20;4.60;;;;;;;;;;5072904;28;20779;-65
2021/04/02 05:50:57;;;;;;;5.43;4.20;;;;;;;;;;5085529;28;20182;-64
2021/04/02 05:53:25;;;;;;;7.00;4.60;;;;;;;;;;5073881;28;20190;-65
2021/04/02 05:55:51;;;;;;;6.00;4.53;;;;;;;;;;5074497;28;20224;-64
2021/04/02 05:58:18;;;;;;;9.07;4.83;;;;;;;;;;5078888;28;20184;-64
2021/04/02 06:00:44;;;;;;;5.90;4.70;;;;;;;;;;5080298;28;20178;-64
2021/04/02 06:03:10;;;;;;;9.63;4.23;;;;;;;;;;5086377;28;20182;-65
2021/04/02 06:05:36;;;;;;;8.20;5.03;;;;;;;;;;5080975;28;20219;-64
2021/04/02 06:08:03;;;;;;;6.13;4.70;;;;;;;;;;5074369;28;20270;-64
2021/04/02 06:10:30;;;;;;;10.87;5.23;;;;;;;;;;5073822;28;20278;-65
2021/04/02 06:12:56;;;;;;;6.43;4.17;;;;;;;;;;5071138;28;20266;-65
2021/04/02 06:15:23;;;;;;;4.97;4.47;;;;;;;;;;5080261;28;20214;-65
2021/04/02 06:17:59;;;;;;;8.13;4.87;;;;;;;;;;5074440;28;20187;-64
2021/04/02 06:20:36;;;;;;;7.50;5.27;;;;;;;;;;5084738;28;20235;-65
2021/04/02 06:23:12;;;;;;;6.67;4.87;;;;;;;;;;5084463;28;20174;-65
2021/04/02 06:25:39;;;;;;;9.07;4.77;;;;;;;;;;5073114;28;20309;-65
2021/04/02 06:28:12;;;;;;;6.90;5.40;;;;;;;;;;5077021;28;20738;-65
2021/04/02 06:30:39;;;;;;;7.50;4.80;;;;;;;;;;5081623;28;20673;-65
2021/04/02 06:33:07;;;;;;;6.93;5.20;;;;;;;;;;5082833;28;20189;-65
2021/04/02 06:35:33;;;;;;;8.37;5.13;;;;;;;;;;5083059;28;20293;-65
2021/04/02 06:37:59;;;;;;;9.73;5.07;;;;;;;;;;5087746;28;20700;-64
2021/04/02 06:40:25;;;;;;;7.00;5.60;;;;;;;;;;5085323;28;20257;-65
2021/04/02 06:42:51;;;;;;;8.57;5.43;;;;;;;;;;5078522;28;20190;-64
2021/04/02 06:45:17;;;;;;;7.90;4.97;;;;;;;;;;5078409;28;20207;-65
2021/04/02 06:47:45;;;;;;;8.75;5.43;;;;;;;;;;5085392;28;20683;-65
2021/04/02 06:50:17;;;;;;;7.43;5.70;;;;;;;;;;5076841;28;20691;-65
2021/04/02 06:52:47;;;;;;;7.55;6.10;;;;;;;;;;5082746;28;20679;-64
2021/04/02 06:55:13;;;;;;;10.07;5.65;;;;;;;;;;5077726;28;20259;-64
2021/04/02 06:57:42;;;;;;;5.80;5.20;;;;;;;;;;5079143;28;20205;-64
2021/04/02 07:00:08;;;;;;;6.55;5.50;;;;;;;;;;5077311;28;20591;-65
2021/04/02 07:02:35;;;;;;;8.75;5.28;;;;;;;;;;5080729;28;20178;-66
2021/04/02 07:05:01;;;;;;;9.70;5.75;;;;;;;;;;5078649;28;20198;-65
2021/04/02 07:07:28;;;;;;;6.53;5.55;;;;;;;;;;5078761;28;20669;-67
2021/04/02 07:09:56;;;;;;;8.20;5.80;;;;;;;;;;5075005;28;20189;-66
2021/04/02 07:12:22;;;;;;;10.38;6.07;;;;;;;;;;5078666;28;20270;-66
2021/04/02 07:14:48;;;;;;;8.93;5.93;;;;;;;;;;5078878;28;20218;-68
2021/04/02 07:17:15;;;;;;;11.00;6.00;;;;;;;;;;5077668;28;20198;-68
2021/04/02 07:19:42;;;;;;;7.38;6.32;;;;;;;;;;5082178;28;20270;-68
2021/04/02 07:22:08;;;;;;;6.75;5.70;;;;;;;;;;5085072;28;20175;-66
2021/04/02 07:24:34;;;;;;;10.23;5.60;;;;;;;;;;5084419;28;20240;-67
2021/04/02 07:27:00;;;;;;;7.53;5.80;;;;;;;;;;5084083;28;20187;-65
2021/04/02 07:29:27;;;;;;;6.22;5.57;;;;;;;;;;5080715;28;20185;-66
2021/04/02 07:31:53;;;;;;;7.78;5.55;;;;;;;;;;5080903;28;20186;-66
2021/04/02 07:34:19;;;;;;;6.85;5.53;;;;;;;;;;5084639;28;20289;-66
2021/04/02 07:36:49;;;;;;;13.70;5.60;;;;;;;;;;5078041;28;20404;-67
2021/04/02 07:39:19;;;;;;;10.43;5.40;;;;;;;;;;5079073;28;20170;-66
2021/04/02 07:41:47;;;;;;;7.60;5.40;;;;;;;;;;5082076;28;20227;-65
2021/04/02 07:44:18;;;;;;;6.13;5.10;;;;;;;;;;5084094;28;20195;-65
2021/04/02 07:47:02;;;;;;;6.60;5.15;;;;;;;;;;5076322;28;20660;-66
2021/04/02 07:49:31;;;;;;;8.95;5.07;;;;;;;;;;5084373;28;20585;-66
2021/04/02 07:51:57;;;;;;;7.53;5.00;;;;;;;;;;5084303;28;20697;-66
2021/04/02 07:54:27;;;;;;;8.80;5.68;;;;;;;;;;5080835;28;20201;-64
2021/04/02 07:56:57;;;;;;;7.30;5.88;;;;;;;;;;5085307;28;20210;-66
2021/04/02 07:59:44;;;;;;;7.88;5.85;;;;;;;;;;5083566;28;20227;-64
2021/04/02 08:02:11;;;;;;;8.20;5.68;;;;;;;;;;5079291;28;20216;-65
2021/04/02 08:04:41;;;;;;;6.60;5.90;;;;;;;;;;5082826;28;20756;-65
2021/04/02 08:07:15;;;;;;;9.27;6.80;;;;;;;;;;5084694;28;20174;-67
2021/04/02 08:09:42;;;;;;;8.23;6.47;;;;;;;;;;5076720;28;20185;-65
2021/04/02 08:12:10;;;;;;;8.00;5.90;;;;;;;;;;5080447;28;20187;-66
2021/04/02 08:14:36;;;;;;;8.52;6.50;;;;;;;;;;5079430;28;20208;-65
2021/04/02 08:17:06;;;;;;;11.23;5.95;;;;;;;;;;5073302;28;20210;-65
2021/04/02 08:19:33;;;;;;;9.00;6.65;;;;;;;;;;5080922;28;20268;-65
2021/04/02 08:22:02;;;;;;;9.20;6.68;;;;;;;;;;5083093;28;20189;-66
2021/04/02 08:24:28;;;;;;;8.57;6.47;;;;;;;;;;5081046;28;20274;-65
2021/04/02 08:26:55;;;;;;;7.40;6.60;;;;;;;;;;5078024;28;20196;-66
2021/04/02 08:29:22;;;;;;;9.02;6.45;;;;;;;;;;5073739;28;20240;-65
2021/04/02 08:31:49;;;;;;;7.10;6.40;;;;;;;;;;5079562;28;20178;-64
2021/04/02 08:34:17;;;;;;;7.88;6.50;;;;;;;;;;5077349;28;20271;-64
2021/04/02 08:36:44;;;;;;;8.75;6.40;;;;;;;;;;5088233;28;20174;-66
2021/04/02 08:39:10;;;;;;;6.57;5.95;;;;;;;;;;5074657;28;20171;-65
2021/04/02 08:41:36;;;;;;;8.10;6.50;;;;;;;;;;5071882;28;20289;-65
2021/04/02 08:44:03;;;;;;;7.43;6.72;;;;;;;;;;5078058;28;20218;-66
2021/04/02 08:46:33;;;;;;;12.20;7.30;;;;;;;;;;5081248;28;20201;-66
2021/04/02 08:48:59;;;;;;;8.50;7.00;;;;;;;;;;5077963;28;20189;-67
2021/04/02 08:51:25;;;;;;;9.10;6.88;;;;;;;;;;5075308;28;20206;-67
2021/04/02 08:53:51;;;;;;;9.00;6.53;;;;;;;;;;5070158;28;20901;-65
2021/04/02 08:56:21;;;;;;;11.27;6.75;;;;;;;;;;5076758;28;20210;-66
2021/04/02 08:58:48;;;;;;;7.25;5.72;;;;;;;;;;5083810;28;20545;-66
2021/04/02 09:01:15;;;;;;;9.27;6.63;;;;;;;;;;5080122;28;20179;-65
2021/04/02 09:03:41;;;;;;;8.18;7.00;;;;;;;;;;5082526;28;20557;-66
2021/04/02 09:06:08;;;;;;;8.98;6.60;;;;;;;;;;5081561;28;20241;-66
2021/04/02 09:08:35;;;;;;;7.13;6.43;;;;;;;;;;5084451;28;20656;-65
2021/04/02 09:11:04;;;;;;;8.00;6.80;;;;;;;;;;5081356;28;20194;-66
2021/04/02 09:13:38;;;;;;;7.90;6.85;;;;;;;;;;5083372;28;20264;-65
2021/04/02 09:16:08;;;;;;;8.50;7.25;;;;;;;;;;5075994;28;20206;-66
2021/04/02 09:18:34;;;;;;;7.93;7.20;;;;;;;;;;5082724;28;20182;-69
2021/04/02 09:21:00;;;;;;;7.78;7.05;;;;;;;;;;5081263;28;20290;-66
2021/04/02 09:23:27;;;;;;;8.77;6.90;;;;;;;;;;5078620;28;20175;-67
2021/04/02 09:25:53;;;;;;;7.22;6.53;;;;;;;;;;5076296;28;21174;-67
2021/04/02 09:28:26;;;;;;;7.03;6.32;;;;;;;;;;5077246;28;20197;-65
2021/04/02 09:31:12;;;;;;;11.27;7.90;;;;;;;;;;5083158;28;20179;-65
2021/04/02 09:33:40;;;;;;;8.55;7.68;;;;;;;;;;5077919;28;20191;-66
2021/04/02 09:36:06;;;;;;;8.70;7.30;;;;;;;;;;5075700;28;20322;-65
2021/04/02 09:38:32;;;;;;;7.65;6.85;;;;;;;;;;5078015;28;20178;-65
2021/04/02 09:40:59;;;;;;;9.63;8.10;;;;;;;;;;5076947;28;20184;-66
2021/04/02 09:43:26;;;;;;;7.65;6.95;;;;;;;;;;5074297;28;20183;-66
2021/04/02 09:45:52;;;;;;;9.32;7.60;;;;;;;;;;5077049;28;20199;-66
2021/04/02 09:48:21;;;;;;;11.70;7.85;;;;;;;;;;5074622;28;20193;-65
2021/04/02 09:50:47;;;;;;;10.18;8.77;;;;;;;;;;5077990;28;20197;-65
2021/04/02 09:53:14;;;;;;;10.93;8.63;;;;;;;;;;5077099;28;20195;-66
2021/04/02 09:55:41;;;;;;;10.65;8.52;;;;;;;;;;5088697;28;20210;-65
2021/04/02 09:58:06;;;;;;;11.55;8.07;;;;;;;;;;5081748;28;20178;-67
2021/04/02 10:00:33;;;;;;;8.38;7.57;;;;;;;;;;5077667;28;20679;-66
2021/04/02 10:02:59;;;;;;;9.48;8.50;;;;;;;;;;5082330;28;20181;-65
2021/04/02 10:05:25;;;;;;;9.30;8.27;;;;;;;;;;5084803;28;20221;-68
2021/04/02 10:07:51;;;;;;;8.60;7.75;;;;;;;;;;5084804;28;20265;-67
2021/04/02 10:10:17;;;;;;;9.15;8.32;;;;;;;;;;5079824;28;20190;-67
2021/04/02 10:12:43;;;;;;;9.85;8.48;;;;;;;;;;5085326;28;20877;-65
2021/04/02 10:15:09;;;;;;;12.50;7.68;;;;;;;;;;5089476;28;20232;-64
2021/04/02 10:17:36;;;;;;;9.65;7.50;;;;;;;;;;5092456;28;20175;-65
2021/04/02 10:20:03;;;;;;;10.02;8.35;;;;;;;;;;5084990;28;20171;-67
2021/04/02 10:22:29;;;;;;;8.35;7.57;;;;;;;;;;5076417;28;20182;-64
2021/04/02 10:24:55;;;;;;;8.77;7.55;;;;;;;;;;5079244;28;20214;-66
2021/04/02 10:27:21;;;;;;;8.93;7.82;;;;;;;;;;5085783;28;20619;-66
2021/04/02 10:29:47;;;;;;;9.48;8.10;;;;;;;;;;5083439;28;20214;-66
2021/04/02 10:32:13;;;;;;;10.02;7.75;;;;;;;;;;5076059;28;20187;-67
2021/04/02 10:34:39;;;;;;;9.55;7.80;;;;;;;;;;5085475;28;20655;-67
2021/04/02 10:37:05;;;;;;;9.55;8.60;;;;;;;;;;5075342;28;20684;-65
2021/04/02 10:39:33;;;;;;;8.68;7.85;;;;;;;;;;5071448;28;21182;-67
2021/04/02 10:41:59;;;;;;;8.70;7.85;;;;;;;;;;5077891;28;20663;-67
2021/04/02 10:44:25;;;;;;;7.50;6.90;;;;;;;;;;5082367;28;20226;-66
2021/04/02 10:46:52;;;;;;;7.82;7.13;;;;;;;;;;5084679;28;20182;-66
2021/04/02 10:49:18;;;;;;;8.73;7.90;;;;;;;;;;5075223;28;20214;-66
2021/04/02 10:51:44;;;;;;;8.25;6.72;;;;;;;;;;5080818;28;20183;-65
2021/04/02 10:54:10;;;;;;;7.95;6.00;;;;;;;;;;5085721;28;20202;-66
2021/04/02 10:56:35;;;;;;;9.43;6.70;;;;;;;;;;5081889;28;20685;-66
2021/04/02 10:59:03;;;;;;;7.75;6.40;;;;;;;;;;5079791;28;20278;-66
2021/04/02 11:01:29;;;;;;;9.52;6.07;;;;;;;;;;5079919;28;20179;-65
2021/04/02 11:03:56;;;;;;;7.28;6.40;;;;;;;;;;5080861;28;20188;-66
2021/04/02 11:06:22;;;;;;;7.50;6.78;;;;;;;;;;5085640;28;20677;-65
2021/04/02 11:08:48;;;;;;;6.90;6.30;;;;;;;;;;5087951;28;20265;-65
2021/04/02 11:11:14;;;;;;;7.10;6.40;;;;;;;;;;5080641;28;20186;-65
2021/04/02 11:13:40;;;;;;;6.88;6.15;;;;;;;;;;5081697;28;20209;-65
2021/04/02 11:16:06;;;;;;;7.45;6.80;;;;;;;;;;5079000;28;20242;-65
2021/04/02 11:18:32;;;;;;;7.13;6.43;;;;;;;;;;5080108;28;20228;-65
2021/04/02 11:20:58;;;;;;;6.97;6.28;;;;;;;;;;5074013;28;20565;-65
2021/04/02 11:23:24;;;;;;;7.13;6.10;;;;;;;;;;5081345;28;20186;-64
2021/04/02 11:25:50;;;;;;;7.75;6.40;;;;;;;;;;5080034;28;20898;-64
2021/04/02 11:28:16;;;;;;;10.10;6.45;;;;;;;;;;5080560;28;20197;-64
2021/04/02 11:30:42;;;;;;;7.18;6.50;;;;;;;;;;5077251;28;20191;-64
2021/04/02 11:33:08;;;;;;;7.50;6.90;;;;;;;;;;5082405;28;20653;-64
2021/04/02 11:35:35;;;;;;;9.13;7.20;;;;;;;;;;5084429;28;20214;-65
2021/04/02 11:38:02;;;;;;;7.70;6.88;;;;;;;;;;5078713;28;20273;-65
2021/04/02 11:40:28;;;;;;;8.32;6.22;;;;;;;;;;5076584;28;21744;-65
2021/04/02 11:42:54;;;;;;;7.82;6.60;;;;;;;;;;5079699;28;20257;-65
2021/04/02 11:45:20;;;;;;;7.20;6.57;;;;;;;;;;5084994;28;20211;-65
2021/04/02 11:47:46;;;;;;;7.88;7.15;;;;;;;;;;5078511;28;20731;-65
2021/04/02 11:50:12;;;;;;;7.63;6.85;;;;;;;;;;5077403;28;20178;-66
2021/04/02 11:52:39;;;;;;;7.50;6.75;;;;;;;;;;5083229;28;20266;-64
2021/04/02 11:55:06;;;;;;;8.68;6.30;;;;;;;;;;5076342;28;20225;-65
2021/04/02 11:57:32;;;;;;;6.60;5.88;;;;;;;;;;5080185;28;20241;-64
2021/04/02 11:59:59;;;;;;;6.95;6.10;;;;;;;;;;5086552;28;20551;-64
2021/04/02 12:02:25;;;;;;;6.97;6.20;;;;;;;;;;5079072;28;20657;-65
2021/04/02 12:04:51;;;;;;;7.40;6.55;;;;;;;;;;5080169;28;20207;-65
2021/04/02 12:07:17;;;;;;;8.13;6.63;;;;;;;;;;5087463;28;20190;-65
2021/04/02 12:09:43;;;;;;;7.93;6.28;;;;;;;;;;5083782;28;20182;-64
2021/04/02 12:12:09;;;;;;;7.28;6.35;;;;;;;;;;5085154;28;20608;-65
2021/04/02 12:14:35;;;;;;;6.72;5.45;;;;;;;;;;5077057;28;20260;-64
2021/04/02 12:17:01;;;;;;;8.07;6.45;;;;;;;;;;5079546;28;20178;-64
2021/04/02 12:19:27;;;;;;;6.55;6.00;;;;;;;;;;5076165;28;20175;-65
2021/04/02 12:21:53;;;;;;;6.43;5.82;;;;;;;;;;5083264;28;20270;-65
2021/04/02 12:24:19;;;;;;;6.18;5.50;;;;;;;;;;5075699;28;20205;-64
2021/04/02 12:26:45;;;;;;;6.45;5.72;;;;;;;;;;5077653;28;20720;-65
2021/04/02 12:29:11;;;;;;;5.72;5.20;;;;;;;;;;5080617;28;20560;-64
2021/04/02 12:31:37;;;;;;;6.03;5.43;;;;;;;;;;5077324;28;20182;-65
2021/04/02 12:34:03;;;;;;;5.15;4.68;;;;;;;;;;5074978;28;20181;-65
2021/04/02 12:36:29;;;;;;;5.88;5.18;;;;;;;;;;5075867;28;20264;-65
2021/04/02 12:38:55;;;;;;;6.28;5.65;;;;;;;;;;5078579;28;20224;-64
2021/04/02 12:41:21;;;;;;;5.72;4.90;;;;;;;;;;5076821;28;20190;-64
2021/04/02 12:43:48;;;;;;;5.85;5.32;;;;;;;;;;5083532;28;20206;-64
2021/04/02 12:46:14;;;;;;;5.47;4.75;;;;;;;;;;5079675;28;20186;-65
2021/04/02 12:48:40;;;;;;;5.68;5.07;;;;;;;;;;5084014;28;20269;-65
2021/04/02 12:51:07;;;;;;;5.78;5.18;;;;;;;;;;5077281;28;20322;-64
2021/04/02 12:53:33;;;;;;;5.70;5.03;;;;;;;;;;5077436;28;20183;-63
2021/04/02 12:56:00;;;;;;;5.20;4.20;;;;;;;;;;5079891;28;20924;-64
2021/04/02 12:58:26;;;;;;;6.07;4.72;;;;;;;;;;5080690;28;20595;-64
2021/04/02 13:00:52;;;;;;;5.32;4.32;;;;;;;;;;5078715;28;20186;-65
2021/04/02 13:03:19;;;;;;;5.15;4.75;;;;;;;;;;5083774;28;20179;-65
2021/04/02 13:05:45;;;;;;;8.05;4.80;;;;;;;;;;5079135;28;20626;-65
2021/04/02 13:08:13;;;;;;;5.50;4.45;;;;;;;;;;5080549;28;20450;-66
2021/04/02 13:10:39;;;;;;;5.00;4.57;;;;;;;;;;5075981;28;20706;-65
2021/04/02 13:13:05;;;;;;;4.90;4.40;;;;;;;;;;5081378;28;20187;-65
2021/04/02 13:15:31;;;;;;;4.70;4.30;;;;;;;;;;5080416;28;20729;-65
2021/04/02 13:17:57;;;;;;;6.88;4.18;;;;;;;;;;5083471;28;20645;-65
2021/04/02 13:20:24;;;;;;;6.13;3.95;;;;;;;;;;5080241;28;20182;-65
2021/04/02 13:22:50;;;;;;;3.92;3.63;;;;;;;;;;5079213;28;20186;-65
2021/04/02 13:25:17;;;;;;;4.22;3.83;;;;;;;;;;5074357;28;20218;-65
2021/04/02 13:27:43;;;;;;;4.15;3.13;;;;;;;;;;5078903;28;20181;-65
2021/04/02 13:30:11;;;;;;;4.53;3.40;;;;;;;;;;5082855;28;20183;-64
2021/04/02 13:32:42;;;;;;;6.25;3.88;;;;;;;;;;5080203;28;20190;-64
2021/04/02 13:35:10;;;;;;;4.93;3.50;;;;;;;;;;5077734;28;20206;-64
2021/04/02 13:37:36;;;;;;;5.97;4.32;;;;;;;;;;5082989;28;20179;-64
2021/04/02 13:40:03;;;;;;;7.75;3.88;;;;;;;;;;5076537;28;20171;-64
2021/04/02 13:42:29;;;;;;;4.90;3.95;;;;;;;;;;5087610;28;20530;-64
2021/04/02 13:44:55;;;;;;;3.97;3.67;;;;;;;;;;5086757;28;20210;-65
2021/04/02 13:47:21;;;;;;;4.60;3.35;;;;;;;;;;5082618;28;20209;-65
2021/04/02 13:49:47;;;;;;;4.28;3.30;;;;;;;;;;5078436;28;20596;-65
2021/04/02 13:52:13;;;;;;;3.80;3.47;;;;;;;;;;5080311;28;20225;-66
2021/04/02 13:54:39;;;;;;;4.82;3.50;;;;;;;;;;5084996;28;20248;-65
2021/04/02 13:57:06;;;;;;;4.00;3.58;;;;;;;;;;5083691;28;20178;-65
2021/04/02 13:59:32;;;;;;;4.05;3.30;;;;;;;;;;5080286;28;20182;-64
2021/04/02 14:01:58;;;;;;;3.47;3.15;;;;;;;;;;5075440;28;20171;-64
2021/04/02 14:04:24;;;;;;;5.03;4.10;;;;;;;;;;5084793;28;20200;-64
2021/04/02 14:06:50;;;;;;;3.83;3.50;;;;;;;;;;5083423;28;20254;-64
2021/04/02 14:09:16;;;;;;;2.95;2.75;;;;;;;;;;5081682;28;20665;-64
2021/04/02 14:11:44;;;;;;;4.32;3.78;;;;;;;;;;5080749;28;20194;-64
2021/04/02 14:14:10;;;;;;;3.47;3.17;;;;;;;;;;5086918;28;20210;-64
2021/04/02 14:16:36;;;;;;;3.47;3.17;;;;;;;;;;5079014;28;20218;-64
2021/04/02 14:19:03;;;;;;;5.05;3.70;;;;;;;;;;5086258;28;20189;-64
2021/04/02 14:21:29;;;;;;;8.73;4.07;;;;;;;;;;5081601;28;20185;-65
2021/04/02 14:23:55;;;;;;;4.38;3.53;;;;;;;;;;5076824;28;20179;-65
2021/04/02 14:26:21;;;;;;;4.93;3.78;;;;;;;;;;5083790;28;20199;-64
2021/04/02 14:28:47;;;;;;;5.13;3.60;;;;;;;;;;5089668;28;20197;-64
2021/04/02 14:31:13;;;;;;;3.78;3.28;;;;;;;;;;5084128;28;20190;-64
2021/04/02 14:33:39;;;;;;;4.35;3.47;;;;;;;;;;5079948;28;20190;-64